Solomon, Kansas
Current Conditions -  °F | °C
As of 2:53 PM on Tuesday 21 Oct 2014 (Local Time) from KSLN Reporting Station
Clear Clear  
Wind Chill: 79°   Ceiling: Unl
Heat Index: 79°   Visibility: 10mi
Dew Point: 53°   Wind: 15mph
Humidity: 40%   Direction: 130°SE
Pressure: 30.02"   Gusts: NA
Location:  38.92°N, 97.37°W
Report Text: KSLN 211953Z 13013KT 10SM CLR 26/12 A3002 RMK AO2 SLP160 T02610117
Loading
Personal Weather Stations






























Interactive Weather Map
Tropical Storm Tracking
New forecast layout! Learn more

10-Day Weather Forecast

Advertisements
Track Severe Weather on mobile